sensor_id;sensor_type;location;lat;lon;timestamp;P1;durP1;ratioP1;P2;durP2;ratioP2
20073;SDS011;10197;54.282;10.078;2023-07-29T00:01:00;4.40;;;4.00;;
20073;SDS011;10197;54.282;10.078;2023-07-29T00:03:27;4.90;;;4.20;;
20073;SDS011;10197;54.282;10.078;2023-07-29T00:05:58;6.57;;;4.90;;
20073;SDS011;10197;54.282;10.078;2023-07-29T00:08:25;4.82;;;4.38;;
20073;SDS011;10197;54.282;10.078;2023-07-29T00:10:54;7.28;;;5.18;;
20073;SDS011;10197;54.282;10.078;2023-07-29T00:13:22;7.22;;;5.28;;
20073;SDS011;10197;54.282;10.078;2023-07-29T00:15:49;5.72;;;4.93;;
20073;SDS011;10197;54.282;10.078;2023-07-29T00:18:16;5.25;;;4.45;;
20073;SDS011;10197;54.282;10.078;2023-07-29T00:20:43;6.00;;;4.72;;
20073;SDS011;10197;54.282;10.078;2023-07-29T00:23:11;4.57;;;4.18;;
20073;SDS011;10197;54.282;10.078;2023-07-29T00:25:38;4.72;;;4.20;;
20073;SDS011;10197;54.282;10.078;2023-07-29T00:28:06;4.75;;;4.10;;
20073;SDS011;10197;54.282;10.078;2023-07-29T00:30:32;5.22;;;4.72;;
20073;SDS011;10197;54.282;10.078;2023-07-29T00:33:00;4.75;;;4.20;;
20073;SDS011;10197;54.282;10.078;2023-07-29T00:35:27;4.38;;;3.97;;
20073;SDS011;10197;54.282;10.078;2023-07-29T00:37:55;5.60;;;4.20;;
20073;SDS011;10197;54.282;10.078;2023-07-29T00:40:22;4.43;;;4.03;;
20073;SDS011;10197;54.282;10.078;2023-07-29T00:42:49;4.95;;;3.92;;
20073;SDS011;10197;54.282;10.078;2023-07-29T00:45:18;5.80;;;4.05;;
20073;SDS011;10197;54.282;10.078;2023-07-29T00:47:46;4.38;;;3.90;;
20073;SDS011;10197;54.282;10.078;2023-07-29T00:54:03;4.28;;;3.53;;
20073;SDS011;10197;54.282;10.078;2023-07-29T00:56:30;4.68;;;3.65;;
20073;SDS011;10197;54.282;10.078;2023-07-29T00:58:58;4.30;;;3.90;;
20073;SDS011;10197;54.282;10.078;2023-07-29T01:01:28;7.75;;;4.32;;
20073;SDS011;10197;54.282;10.078;2023-07-29T01:03:57;4.78;;;4.25;;
20073;SDS011;10197;54.282;10.078;2023-07-29T01:06:27;4.93;;;4.10;;
20073;SDS011;10197;54.282;10.078;2023-07-29T01:08:58;4.78;;;4.38;;
20073;SDS011;10197;54.282;10.078;2023-07-29T01:11:38;4.72;;;4.25;;
20073;SDS011;10197;54.282;10.078;2023-07-29T01:14:11;4.50;;;3.70;;
20073;SDS011;10197;54.282;10.078;2023-07-29T01:16:46;4.45;;;3.67;;
20073;SDS011;10197;54.282;10.078;2023-07-29T01:19:20;3.60;;;3.30;;
20073;SDS011;10197;54.282;10.078;2023-07-29T01:22:03;4.28;;;3.22;;
20073;SDS011;10197;54.282;10.078;2023-07-29T01:24:32;4.10;;;3.28;;
20073;SDS011;10197;54.282;10.078;2023-07-29T01:26:59;4.07;;;3.67;;
20073;SDS011;10197;54.282;10.078;2023-07-29T01:29:29;5.05;;;3.50;;
20073;SDS011;10197;54.282;10.078;2023-07-29T01:31:56;5.05;;;3.45;;
20073;SDS011;10197;54.282;10.078;2023-07-29T01:34:26;3.90;;;3.47;;
20073;SDS011;10197;54.282;10.078;2023-07-29T01:36:56;3.92;;;3.53;;
20073;SDS011;10197;54.282;10.078;2023-07-29T01:39:25;5.45;;;3.30;;
20073;SDS011;10197;54.282;10.078;2023-07-29T01:41:55;4.15;;;3.75;;
20073;SDS011;10197;54.282;10.078;2023-07-29T01:44:22;3.88;;;3.13;;
20073;SDS011;10197;54.282;10.078;2023-07-29T01:46:49;4.15;;;3.75;;
20073;SDS011;10197;54.282;10.078;2023-07-29T01:49:16;3.97;;;3.63;;
20073;SDS011;10197;54.282;10.078;2023-07-29T01:51:43;3.70;;;3.30;;
20073;SDS011;10197;54.282;10.078;2023-07-29T01:54:11;5.18;;;3.45;;
20073;SDS011;10197;54.282;10.078;2023-07-29T01:56:38;3.92;;;3.40;;
20073;SDS011;10197;54.282;10.078;2023-07-29T01:59:07;4.07;;;3.67;;
20073;SDS011;10197;54.282;10.078;2023-07-29T02:01:35;5.32;;;4.65;;
20073;SDS011;10197;54.282;10.078;2023-07-29T02:04:01;6.45;;;5.32;;
20073;SDS011;10197;54.282;10.078;2023-07-29T02:06:28;6.47;;;4.88;;
20073;SDS011;10197;54.282;10.078;2023-07-29T02:08:57;5.00;;;4.20;;
20073;SDS011;10197;54.282;10.078;2023-07-29T02:11:24;6.05;;;4.88;;
20073;SDS011;10197;54.282;10.078;2023-07-29T02:13:53;4.72;;;4.32;;
20073;SDS011;10197;54.282;10.078;2023-07-29T02:16:21;4.95;;;4.45;;
20073;SDS011;10197;54.282;10.078;2023-07-29T02:18:49;4.07;;;3.63;;
20073;SDS011;10197;54.282;10.078;2023-07-29T02:21:16;4.28;;;3.80;;
20073;SDS011;10197;54.282;10.078;2023-07-29T02:23:44;4.20;;;3.80;;
20073;SDS011;10197;54.282;10.078;2023-07-29T02:26:11;6.25;;;4.63;;
20073;SDS011;10197;54.282;10.078;2023-07-29T02:28:38;5.97;;;4.90;;
20073;SDS011;10197;54.282;10.078;2023-07-29T02:31:15;7.22;;;5.20;;
20073;SDS011;10197;54.282;10.078;2023-07-29T02:33:46;8.15;;;4.80;;
20073;SDS011;10197;54.282;10.078;2023-07-29T02:36:14;6.22;;;5.20;;
20073;SDS011;10197;54.282;10.078;2023-07-29T02:38:43;7.50;;;5.78;;
20073;SDS011;10197;54.282;10.078;2023-07-29T02:41:11;7.28;;;5.63;;
20073;SDS011;10197;54.282;10.078;2023-07-29T02:43:38;6.55;;;5.47;;
20073;SDS011;10197;54.282;10.078;2023-07-29T02:46:06;6.25;;;5.07;;
20073;SDS011;10197;54.282;10.078;2023-07-29T02:48:33;6.82;;;5.10;;
20073;SDS011;10197;54.282;10.078;2023-07-29T02:51:01;5.20;;;4.57;;
20073;SDS011;10197;54.282;10.078;2023-07-29T02:53:28;7.43;;;5.95;;
20073;SDS011;10197;54.282;10.078;2023-07-29T02:55:56;7.57;;;5.47;;
20073;SDS011;10197;54.282;10.078;2023-07-29T02:58:24;6.47;;;5.55;;
20073;SDS011;10197;54.282;10.078;2023-07-29T03:00:59;6.78;;;5.43;;
20073;SDS011;10197;54.282;10.078;2023-07-29T03:03:26;8.45;;;5.75;;
20073;SDS011;10197;54.282;10.078;2023-07-29T03:05:58;6.25;;;5.20;;
20073;SDS011;10197;54.282;10.078;2023-07-29T03:08:28;5.95;;;5.15;;
20073;SDS011;10197;54.282;10.078;2023-07-29T03:10:57;7.22;;;5.60;;
20073;SDS011;10197;54.282;10.078;2023-07-29T03:13:24;7.45;;;5.93;;
20073;SDS011;10197;54.282;10.078;2023-07-29T03:15:51;7.45;;;6.07;;
20073;SDS011;10197;54.282;10.078;2023-07-29T03:18:18;7.05;;;5.85;;
20073;SDS011;10197;54.282;10.078;2023-07-29T03:20:45;8.20;;;6.53;;
20073;SDS011;10197;54.282;10.078;2023-07-29T03:23:12;9.73;;;6.93;;
20073;SDS011;10197;54.282;10.078;2023-07-29T03:25:42;8.35;;;6.30;;
20073;SDS011;10197;54.282;10.078;2023-07-29T03:28:11;12.48;;;7.60;;
20073;SDS011;10197;54.282;10.078;2023-07-29T03:30:38;9.10;;;7.00;;
20073;SDS011;10197;54.282;10.078;2023-07-29T03:33:06;10.63;;;6.82;;
20073;SDS011;10197;54.282;10.078;2023-07-29T03:35:33;8.48;;;5.93;;
20073;SDS011;10197;54.282;10.078;2023-07-29T03:38:00;7.70;;;6.05;;
20073;SDS011;10197;54.282;10.078;2023-07-29T03:40:26;7.05;;;5.82;;
20073;SDS011;10197;54.282;10.078;2023-07-29T03:42:55;8.07;;;5.97;;
20073;SDS011;10197;54.282;10.078;2023-07-29T03:45:23;8.20;;;6.32;;
20073;SDS011;10197;54.282;10.078;2023-07-29T03:47:51;9.32;;;6.97;;
20073;SDS011;10197;54.282;10.078;2023-07-29T03:50:17;11.50;;;8.18;;
20073;SDS011;10197;54.282;10.078;2023-07-29T03:52:44;8.63;;;6.28;;
20073;SDS011;10197;54.282;10.078;2023-07-29T03:55:12;9.38;;;7.22;;
20073;SDS011;10197;54.282;10.078;2023-07-29T03:57:39;9.60;;;6.65;;
20073;SDS011;10197;54.282;10.078;2023-07-29T04:00:07;12.02;;;6.93;;
20073;SDS011;10197;54.282;10.078;2023-07-29T04:02:40;9.55;;;7.18;;
20073;SDS011;10197;54.282;10.078;2023-07-29T04:05:09;9.98;;;6.82;;
20073;SDS011;10197;54.282;10.078;2023-07-29T04:07:36;9.48;;;7.05;;
20073;SDS011;10197;54.282;10.078;2023-07-29T04:10:04;11.27;;;7.93;;
20073;SDS011;10197;54.282;10.078;2023-07-29T04:12:31;10.38;;;7.45;;
20073;SDS011;10197;54.282;10.078;2023-07-29T04:14:59;12.23;;;8.13;;
20073;SDS011;10197;54.282;10.078;2023-07-29T04:17:27;11.23;;;8.10;;
20073;SDS011;10197;54.282;10.078;2023-07-29T04:19:55;22.65;;;11.65;;
20073;SDS011;10197;54.282;10.078;2023-07-29T04:22:27;14.30;;;10.40;;
20073;SDS011;10197;54.282;10.078;2023-07-29T04:24:54;14.55;;;9.82;;
20073;SDS011;10197;54.282;10.078;2023-07-29T04:27:21;16.52;;;9.68;;
20073;SDS011;10197;54.282;10.078;2023-07-29T04:29:47;10.88;;;7.88;;
20073;SDS011;10197;54.282;10.078;2023-07-29T04:32:14;13.40;;;8.85;;
20073;SDS011;10197;54.282;10.078;2023-07-29T04:34:43;11.10;;;7.93;;
20073;SDS011;10197;54.282;10.078;2023-07-29T04:37:11;13.23;;;9.48;;
20073;SDS011;10197;54.282;10.078;2023-07-29T04:39:37;14.93;;;9.27;;
20073;SDS011;10197;54.282;10.078;2023-07-29T04:42:04;11.93;;;8.45;;
20073;SDS011;10197;54.282;10.078;2023-07-29T04:44:31;12.75;;;9.13;;
20073;SDS011;10197;54.282;10.078;2023-07-29T04:46:59;10.82;;;7.63;;
20073;SDS011;10197;54.282;10.078;2023-07-29T04:49:25;14.98;;;9.00;;
20073;SDS011;10197;54.282;10.078;2023-07-29T04:51:54;14.93;;;10.57;;
20073;SDS011;10197;54.282;10.078;2023-07-29T04:54:22;12.27;;;9.25;;
20073;SDS011;10197;54.282;10.078;2023-07-29T04:56:49;11.02;;;8.00;;
20073;SDS011;10197;54.282;10.078;2023-07-29T04:59:16;11.45;;;8.18;;
20073;SDS011;10197;54.282;10.078;2023-07-29T05:01:43;11.20;;;8.30;;
20073;SDS011;10197;54.282;10.078;2023-07-29T05:04:11;11.45;;;8.05;;
20073;SDS011;10197;54.282;10.078;2023-07-29T05:06:37;10.27;;;7.50;;
20073;SDS011;10197;54.282;10.078;2023-07-29T05:09:15;10.98;;;7.40;;
20073;SDS011;10197;54.282;10.078;2023-07-29T05:11:43;10.45;;;7.60;;
20073;SDS011;10197;54.282;10.078;2023-07-29T05:14:10;10.38;;;7.35;;
20073;SDS011;10197;54.282;10.078;2023-07-29T05:16:37;12.30;;;7.30;;
20073;SDS011;10197;54.282;10.078;2023-07-29T05:19:04;9.20;;;7.05;;
20073;SDS011;10197;54.282;10.078;2023-07-29T05:21:31;10.45;;;7.75;;
20073;SDS011;10197;54.282;10.078;2023-07-29T05:23:58;10.35;;;6.63;;
20073;SDS011;10197;54.282;10.078;2023-07-29T05:26:27;10.48;;;7.70;;
20073;SDS011;10197;54.282;10.078;2023-07-29T05:28:55;9.95;;;6.90;;
20073;SDS011;10197;54.282;10.078;2023-07-29T05:31:22;9.02;;;7.15;;
20073;SDS011;10197;54.282;10.078;2023-07-29T05:33:49;9.32;;;7.35;;
20073;SDS011;10197;54.282;10.078;2023-07-29T05:36:16;10.50;;;7.22;;
20073;SDS011;10197;54.282;10.078;2023-07-29T05:38:43;7.93;;;6.53;;
20073;SDS011;10197;54.282;10.078;2023-07-29T05:41:10;9.93;;;7.47;;
20073;SDS011;10197;54.282;10.078;2023-07-29T05:43:38;10.70;;;7.13;;
20073;SDS011;10197;54.282;10.078;2023-07-29T05:46:05;8.70;;;6.10;;
20073;SDS011;10197;54.282;10.078;2023-07-29T05:48:33;8.48;;;6.82;;
20073;SDS011;10197;54.282;10.078;2023-07-29T05:51:02;7.88;;;6.93;;
20073;SDS011;10197;54.282;10.078;2023-07-29T05:53:31;6.95;;;6.10;;
20073;SDS011;10197;54.282;10.078;2023-07-29T05:55:57;7.75;;;6.10;;
20073;SDS011;10197;54.282;10.078;2023-07-29T05:58:24;6.85;;;6.15;;
20073;SDS011;10197;54.282;10.078;2023-07-29T06:00:53;7.00;;;6.05;;
20073;SDS011;10197;54.282;10.078;2023-07-29T06:03:20;7.38;;;5.85;;
20073;SDS011;10197;54.282;10.078;2023-07-29T06:05:49;7.22;;;6.05;;
20073;SDS011;10197;54.282;10.078;2023-07-29T06:08:17;7.47;;;5.93;;
20073;SDS011;10197;54.282;10.078;2023-07-29T06:10:43;8.63;;;7.53;;
20073;SDS011;10197;54.282;10.078;2023-07-29T06:13:10;8.23;;;6.68;;
20073;SDS011;10197;54.282;10.078;2023-07-29T06:15:37;7.53;;;5.70;;
20073;SDS011;10197;54.282;10.078;2023-07-29T06:18:06;6.28;;;5.65;;
20073;SDS011;10197;54.282;10.078;2023-07-29T06:20:33;6.63;;;5.18;;
20073;SDS011;10197;54.282;10.078;2023-07-29T06:23:00;4.97;;;4.47;;
20073;SDS011;10197;54.282;10.078;2023-07-29T06:25:27;5.40;;;4.85;;
20073;SDS011;10197;54.282;10.078;2023-07-29T06:27:54;6.38;;;5.47;;
20073;SDS011;10197;54.282;10.078;2023-07-29T06:30:21;6.93;;;6.07;;
20073;SDS011;10197;54.282;10.078;2023-07-29T06:32:48;6.60;;;5.85;;
20073;SDS011;10197;54.282;10.078;2023-07-29T06:35:16;8.82;;;7.13;;
20073;SDS011;10197;54.282;10.078;2023-07-29T06:37:43;6.22;;;5.57;;
20073;SDS011;10197;54.282;10.078;2023-07-29T06:40:10;6.00;;;5.32;;
20073;SDS011;10197;54.282;10.078;2023-07-29T06:42:38;8.13;;;7.40;;
20073;SDS011;10197;54.282;10.078;2023-07-29T06:45:05;6.28;;;5.03;;
20073;SDS011;10197;54.282;10.078;2023-07-29T06:47:34;8.50;;;6.88;;
20073;SDS011;10197;54.282;10.078;2023-07-29T06:50:00;11.00;;;9.90;;
20073;SDS011;10197;54.282;10.078;2023-07-29T06:52:29;8.50;;;7.22;;
20073;SDS011;10197;54.282;10.078;2023-07-29T06:54:56;8.52;;;7.63;;
20073;SDS011;10197;54.282;10.078;2023-07-29T06:57:22;9.30;;;7.90;;
20073;SDS011;10197;54.282;10.078;2023-07-29T06:59:49;7.22;;;6.53;;
20073;SDS011;10197;54.282;10.078;2023-07-29T07:02:17;7.70;;;6.88;;
20073;SDS011;10197;54.282;10.078;2023-07-29T07:04:44;9.68;;;8.48;;
20073;SDS011;10197;54.282;10.078;2023-07-29T07:07:11;8.32;;;7.38;;
20073;SDS011;10197;54.282;10.078;2023-07-29T07:09:39;9.27;;;7.60;;
20073;SDS011;10197;54.282;10.078;2023-07-29T07:12:06;11.02;;;9.05;;
20073;SDS011;10197;54.282;10.078;2023-07-29T07:14:33;9.80;;;7.22;;
20073;SDS011;10197;54.282;10.078;2023-07-29T07:17:00;8.68;;;7.53;;
20073;SDS011;10197;54.282;10.078;2023-07-29T07:19:27;7.15;;;6.40;;
20073;SDS011;10197;54.282;10.078;2023-07-29T07:21:54;12.32;;;10.57;;
20073;SDS011;10197;54.282;10.078;2023-07-29T07:24:20;13.70;;;11.60;;
20073;SDS011;10197;54.282;10.078;2023-07-29T07:26:49;10.27;;;9.18;;
20073;SDS011;10197;54.282;10.078;2023-07-29T07:29:15;10.38;;;8.90;;
20073;SDS011;10197;54.282;10.078;2023-07-29T07:31:43;14.20;;;11.57;;
20073;SDS011;10197;54.282;10.078;2023-07-29T07:34:16;14.85;;;10.07;;
20073;SDS011;10197;54.282;10.078;2023-07-29T07:36:43;15.07;;;11.32;;
20073;SDS011;10197;54.282;10.078;2023-07-29T07:39:10;11.20;;;9.55;;
20073;SDS011;10197;54.282;10.078;2023-07-29T07:41:37;12.98;;;9.45;;
20073;SDS011;10197;54.282;10.078;2023-07-29T07:44:08;13.45;;;10.57;;
20073;SDS011;10197;54.282;10.078;2023-07-29T07:46:36;12.82;;;10.30;;
20073;SDS011;10197;54.282;10.078;2023-07-29T07:49:04;27.65;;;20.05;;
20073;SDS011;10197;54.282;10.078;2023-07-29T07:51:30;19.45;;;16.08;;
20073;SDS011;10197;54.282;10.078;2023-07-29T07:53:57;11.02;;;9.40;;
20073;SDS011;10197;54.282;10.078;2023-07-29T07:56:24;12.15;;;10.85;;
20073;SDS011;10197;54.282;10.078;2023-07-29T07:58:51;10.02;;;8.95;;
20073;SDS011;10197;54.282;10.078;2023-07-29T08:01:19;9.63;;;8.60;;
20073;SDS011;10197;54.282;10.078;2023-07-29T08:03:46;12.10;;;10.40;;
20073;SDS011;10197;54.282;10.078;2023-07-29T08:06:13;11.13;;;8.75;;
20073;SDS011;10197;54.282;10.078;2023-07-29T08:08:40;10.65;;;9.65;;
20073;SDS011;10197;54.282;10.078;2023-07-29T08:11:06;10.45;;;9.40;;
20073;SDS011;10197;54.282;10.078;2023-07-29T08:13:33;9.77;;;8.43;;
20073;SDS011;10197;54.282;10.078;2023-07-29T08:16:00;9.30;;;8.25;;
20073;SDS011;10197;54.282;10.078;2023-07-29T08:18:28;9.63;;;7.72;;
20073;SDS011;10197;54.282;10.078;2023-07-29T08:20:56;12.27;;;9.02;;
20073;SDS011;10197;54.282;10.078;2023-07-29T08:23:24;10.30;;;9.02;;
20073;SDS011;10197;54.282;10.078;2023-07-29T08:25:52;8.57;;;7.68;;
20073;SDS011;10197;54.282;10.078;2023-07-29T08:28:21;10.82;;;8.55;;
20073;SDS011;10197;54.282;10.078;2023-07-29T08:30:48;10.43;;;8.82;;
20073;SDS011;10197;54.282;10.078;2023-07-29T08:33:15;9.27;;;7.85;;
20073;SDS011;10197;54.282;10.078;2023-07-29T08:35:43;10.43;;;8.52;;
20073;SDS011;10197;54.282;10.078;2023-07-29T08:38:10;9.63;;;7.85;;
20073;SDS011;10197;54.282;10.078;2023-07-29T08:40:37;11.90;;;8.52;;
20073;SDS011;10197;54.282;10.078;2023-07-29T08:43:05;12.38;;;10.93;;
20073;SDS011;10197;54.282;10.078;2023-07-29T08:45:33;13.20;;;9.80;;
20073;SDS011;10197;54.282;10.078;2023-07-29T08:48:00;11.40;;;9.63;;
20073;SDS011;10197;54.282;10.078;2023-07-29T08:50:29;10.55;;;8.80;;
20073;SDS011;10197;54.282;10.078;2023-07-29T08:53:00;8.57;;;7.47;;
20073;SDS011;10197;54.282;10.078;2023-07-29T08:55:27;11.00;;;7.75;;
20073;SDS011;10197;54.282;10.078;2023-07-29T08:57:55;9.13;;;7.60;;
20073;SDS011;10197;54.282;10.078;2023-07-29T09:00:22;10.98;;;9.30;;
20073;SDS011;10197;54.282;10.078;2023-07-29T09:02:49;14.65;;;12.30;;
20073;SDS011;10197;54.282;10.078;2023-07-29T09:05:16;12.77;;;9.80;;
20073;SDS011;10197;54.282;10.078;2023-07-29T09:07:42;8.90;;;7.93;;
20073;SDS011;10197;54.282;10.078;2023-07-29T09:10:11;9.45;;;7.78;;
20073;SDS011;10197;54.282;10.078;2023-07-29T09:12:40;11.02;;;7.57;;
20073;SDS011;10197;54.282;10.078;2023-07-29T09:15:07;11.52;;;8.52;;
20073;SDS011;10197;54.282;10.078;2023-07-29T09:17:34;8.40;;;7.47;;
20073;SDS011;10197;54.282;10.078;2023-07-29T09:20:01;8.52;;;7.10;;
20073;SDS011;10197;54.282;10.078;2023-07-29T09:22:30;9.70;;;7.78;;
20073;SDS011;10197;54.282;10.078;2023-07-29T09:24:57;8.15;;;6.82;;
20073;SDS011;10197;54.282;10.078;2023-07-29T09:27:26;9.02;;;5.78;;
20073;SDS011;10197;54.282;10.078;2023-07-29T09:29:53;8.85;;;5.68;;
20073;SDS011;10197;54.282;10.078;2023-07-29T09:32:21;8.05;;;7.13;;
20073;SDS011;10197;54.282;10.078;2023-07-29T09:34:50;9.20;;;6.88;;
20073;SDS011;10197;54.282;10.078;2023-07-29T09:37:17;8.13;;;6.70;;
20073;SDS011;10197;54.282;10.078;2023-07-29T09:39:44;9.18;;;7.20;;
20073;SDS011;10197;54.282;10.078;2023-07-29T09:42:16;7.68;;;6.78;;
20073;SDS011;10197;54.282;10.078;2023-07-29T09:44:45;7.45;;;6.10;;
20073;SDS011;10197;54.282;10.078;2023-07-29T09:47:18;9.07;;;6.85;;
20073;SDS011;10197;54.282;10.078;2023-07-29T09:49:47;7.88;;;6.70;;
20073;SDS011;10197;54.282;10.078;2023-07-29T09:52:14;6.57;;;5.97;;
20073;SDS011;10197;54.282;10.078;2023-07-29T09:54:42;5.15;;;4.53;;
20073;SDS011;10197;54.282;10.078;2023-07-29T09:57:09;5.22;;;3.78;;
20073;SDS011;10197;54.282;10.078;2023-07-29T09:59:36;4.93;;;4.53;;
20073;SDS011;10197;54.282;10.078;2023-07-29T10:02:05;5.93;;;5.38;;
20073;SDS011;10197;54.282;10.078;2023-07-29T10:04:33;5.95;;;4.78;;
20073;SDS011;10197;54.282;10.078;2023-07-29T10:07:02;5.15;;;4.65;;
20073;SDS011;10197;54.282;10.078;2023-07-29T10:09:30;4.47;;;4.07;;
20073;SDS011;10197;54.282;10.078;2023-07-29T10:11:57;5.25;;;4.75;;
20073;SDS011;10197;54.282;10.078;2023-07-29T10:14:26;5.43;;;4.60;;
20073;SDS011;10197;54.282;10.078;2023-07-29T10:16:54;5.85;;;5.13;;
20073;SDS011;10197;54.282;10.078;2023-07-29T10:19:24;7.32;;;5.28;;
20073;SDS011;10197;54.282;10.078;2023-07-29T10:21:51;5.70;;;5.07;;
20073;SDS011;10197;54.282;10.078;2023-07-29T10:24:19;5.15;;;4.60;;
20073;SDS011;10197;54.282;10.078;2023-07-29T10:26:47;6.70;;;6.05;;
20073;SDS011;10197;54.282;10.078;2023-07-29T10:29:17;5.35;;;4.95;;
20073;SDS011;10197;54.282;10.078;2023-07-29T10:31:46;5.38;;;4.75;;
20073;SDS011;10197;54.282;10.078;2023-07-29T10:34:13;4.40;;;4.00;;
20073;SDS011;10197;54.282;10.078;2023-07-29T10:36:42;5.70;;;5.15;;
20073;SDS011;10197;54.282;10.078;2023-07-29T10:39:09;4.70;;;4.10;;
20073;SDS011;10197;54.282;10.078;2023-07-29T10:41:54;6.30;;;5.40;;
20073;SDS011;10197;54.282;10.078;2023-07-29T10:47:15;5.18;;;3.53;;
20073;SDS011;10197;54.282;10.078;2023-07-29T10:49:43;4.18;;;3.40;;
20073;SDS011;10197;54.282;10.078;2023-07-29T10:52:14;3.70;;;3.10;;
20073;SDS011;10197;54.282;10.078;2023-07-29T10:54:42;3.72;;;3.10;;
20073;SDS011;10197;54.282;10.078;2023-07-29T10:57:12;3.30;;;3.00;;
20073;SDS011;10197;54.282;10.078;2023-07-29T10:59:39;3.20;;;2.90;;
20073;SDS011;10197;54.282;10.078;2023-07-29T11:02:12;3.10;;;2.72;;
20073;SDS011;10197;54.282;10.078;2023-07-29T11:04:49;2.65;;;2.45;;
20073;SDS011;10197;54.282;10.078;2023-07-29T11:07:36;2.58;;;2.38;;
20073;SDS011;10197;54.282;10.078;2023-07-29T11:10:11;2.55;;;2.35;;
20073;SDS011;10197;54.282;10.078;2023-07-29T11:12:42;2.70;;;2.50;;
20073;SDS011;10197;54.282;10.078;2023-07-29T11:15:13;2.30;;;2.10;;
20073;SDS011;10197;54.282;10.078;2023-07-29T11:17:42;2.13;;;2.00;;
20073;SDS011;10197;54.282;10.078;2023-07-29T11:20:11;2.60;;;2.40;;
20073;SDS011;10197;54.282;10.078;2023-07-29T11:22:40;2.40;;;2.20;;
20073;SDS011;10197;54.282;10.078;2023-07-29T11:25:07;2.30;;;2.10;;
20073;SDS011;10197;54.282;10.078;2023-07-29T11:27:35;3.67;;;2.67;;
20073;SDS011;10197;54.282;10.078;2023-07-29T11:30:03;3.00;;;2.45;;
20073;SDS011;10197;54.282;10.078;2023-07-29T11:32:31;3.38;;;2.20;;
20073;SDS011;10197;54.282;10.078;2023-07-29T11:35:01;5.70;;;3.50;;
20073;SDS011;10197;54.282;10.078;2023-07-29T11:37:29;2.95;;;2.22;;
20073;SDS011;10197;54.282;10.078;2023-07-29T11:39:57;2.55;;;2.33;;
20073;SDS011;10197;54.282;10.078;2023-07-29T11:42:24;3.22;;;2.60;;
20073;SDS011;10197;54.282;10.078;2023-07-29T11:44:52;3.38;;;2.38;;
20073;SDS011;10197;54.282;10.078;2023-07-29T11:47:19;2.22;;;2.05;;
20073;SDS011;10197;54.282;10.078;2023-07-29T11:49:46;3.45;;;2.40;;
20073;SDS011;10197;54.282;10.078;2023-07-29T11:52:13;2.15;;;1.95;;
20073;SDS011;10197;54.282;10.078;2023-07-29T11:54:44;2.83;;;1.92;;
20073;SDS011;10197;54.282;10.078;2023-07-29T11:57:13;2.20;;;2.00;;
20073;SDS011;10197;54.282;10.078;2023-07-29T11:59:40;2.65;;;2.10;;
20073;SDS011;10197;54.282;10.078;2023-07-29T12:02:08;2.10;;;1.90;;
20073;SDS011;10197;54.282;10.078;2023-07-29T12:04:37;3.20;;;2.00;;
20073;SDS011;10197;54.282;10.078;2023-07-29T12:07:04;2.08;;;1.90;;
20073;SDS011;10197;54.282;10.078;2023-07-29T12:09:32;3.10;;;2.10;;
20073;SDS011;10197;54.282;10.078;2023-07-29T12:12:00;4.68;;;2.08;;
20073;SDS011;10197;54.282;10.078;2023-07-29T12:14:29;3.25;;;1.90;;
20073;SDS011;10197;54.282;10.078;2023-07-29T12:16:56;2.28;;;2.00;;
20073;SDS011;10197;54.282;10.078;2023-07-29T12:19:30;2.88;;;2.20;;
20073;SDS011;10197;54.282;10.078;2023-07-29T12:21:57;2.03;;;1.83;;
20073;SDS011;10197;54.282;10.078;2023-07-29T12:24:24;1.73;;;1.60;;
20073;SDS011;10197;54.282;10.078;2023-07-29T12:26:51;1.90;;;1.80;;
20073;SDS011;10197;54.282;10.078;2023-07-29T12:29:18;3.13;;;1.95;;
20073;SDS011;10197;54.282;10.078;2023-07-29T12:31:47;2.33;;;1.70;;
20073;SDS011;10197;54.282;10.078;2023-07-29T12:34:18;2.88;;;1.80;;
20073;SDS011;10197;54.282;10.078;2023-07-29T12:36:45;3.20;;;1.80;;
20073;SDS011;10197;54.282;10.078;2023-07-29T12:39:17;1.95;;;1.75;;
20073;SDS011;10197;54.282;10.078;2023-07-29T12:41:44;1.75;;;1.60;;
20073;SDS011;10197;54.282;10.078;2023-07-29T12:44:11;3.20;;;2.00;;
20073;SDS011;10197;54.282;10.078;2023-07-29T12:46:38;1.90;;;1.80;;
20073;SDS011;10197;54.282;10.078;2023-07-29T12:49:08;2.67;;;1.90;;
20073;SDS011;10197;54.282;10.078;2023-07-29T12:51:34;3.47;;;1.90;;
20073;SDS011;10197;54.282;10.078;2023-07-29T12:54:02;2.10;;;1.80;;
20073;SDS011;10197;54.282;10.078;2023-07-29T12:56:29;2.92;;;1.98;;
20073;SDS011;10197;54.282;10.078;2023-07-29T12:58:56;1.98;;;1.75;;
20073;SDS011;10197;54.282;10.078;2023-07-29T13:01:23;2.25;;;1.90;;
20073;SDS011;10197;54.282;10.078;2023-07-29T13:03:51;4.55;;;2.58;;
20073;SDS011;10197;54.282;10.078;2023-07-29T13:06:19;2.30;;;1.95;;
20073;SDS011;10197;54.282;10.078;2023-07-29T13:08:47;6.57;;;2.10;;
20073;SDS011;10197;54.282;10.078;2023-07-29T13:11:14;2.63;;;1.77;;
20073;SDS011;10197;54.282;10.078;2023-07-29T13:13:41;2.47;;;2.20;;
20073;SDS011;10197;54.282;10.078;2023-07-29T13:16:12;4.55;;;2.15;;
20073;SDS011;10197;54.282;10.078;2023-07-29T13:18:39;4.20;;;2.33;;
20073;SDS011;10197;54.282;10.078;2023-07-29T13:21:06;2.95;;;2.60;;
20073;SDS011;10197;54.282;10.078;2023-07-29T13:23:34;3.20;;;2.75;;
20073;SDS011;10197;54.282;10.078;2023-07-29T13:26:01;5.80;;;2.70;;
20073;SDS011;10197;54.282;10.078;2023-07-29T13:28:29;6.32;;;2.80;;
20073;SDS011;10197;54.282;10.078;2023-07-29T13:30:55;3.90;;;2.90;;
20073;SDS011;10197;54.282;10.078;2023-07-29T13:33:22;2.78;;;2.50;;
20073;SDS011;10197;54.282;10.078;2023-07-29T13:35:51;2.50;;;2.30;;
20073;SDS011;10197;54.282;10.078;2023-07-29T13:38:18;2.58;;;2.30;;
20073;SDS011;10197;54.282;10.078;2023-07-29T13:40:46;3.78;;;2.50;;
20073;SDS011;10197;54.282;10.078;2023-07-29T13:43:16;4.00;;;2.15;;
20073;SDS011;10197;54.282;10.078;2023-07-29T13:45:42;3.65;;;2.10;;
20073;SDS011;10197;54.282;10.078;2023-07-29T13:48:09;5.50;;;2.35;;
20073;SDS011;10197;54.282;10.078;2023-07-29T13:50:36;2.17;;;1.80;;
20073;SDS011;10197;54.282;10.078;2023-07-29T13:53:03;3.30;;;2.00;;
20073;SDS011;10197;54.282;10.078;2023-07-29T13:55:30;2.00;;;1.70;;
20073;SDS011;10197;54.282;10.078;2023-07-29T13:57:58;3.42;;;1.92;;
20073;SDS011;10197;54.282;10.078;2023-07-29T14:00:25;2.78;;;2.00;;
20073;SDS011;10197;54.282;10.078;2023-07-29T14:02:53;2.88;;;2.10;;
20073;SDS011;10197;54.282;10.078;2023-07-29T14:05:20;3.55;;;2.10;;
20073;SDS011;10197;54.282;10.078;2023-07-29T14:07:49;3.03;;;1.95;;
20073;SDS011;10197;54.282;10.078;2023-07-29T14:10:16;3.45;;;1.80;;
20073;SDS011;10197;54.282;10.078;2023-07-29T14:12:43;5.13;;;2.10;;
20073;SDS011;10197;54.282;10.078;2023-07-29T14:15:12;2.50;;;2.03;;
20073;SDS011;10197;54.282;10.078;2023-07-29T14:17:38;3.78;;;2.40;;
20073;SDS011;10197;54.282;10.078;2023-07-29T14:20:06;3.75;;;2.20;;
20073;SDS011;10197;54.282;10.078;2023-07-29T14:22:33;4.88;;;1.90;;
20073;SDS011;10197;54.282;10.078;2023-07-29T14:25:02;2.85;;;1.75;;
20073;SDS011;10197;54.282;10.078;2023-07-29T14:27:29;2.90;;;1.90;;
20073;SDS011;10197;54.282;10.078;2023-07-29T14:29:55;5.30;;;2.08;;
20073;SDS011;10197;54.282;10.078;2023-07-29T14:32:25;3.28;;;2.20;;
20073;SDS011;10197;54.282;10.078;2023-07-29T14:34:52;7.55;;;2.38;;
20073;SDS011;10197;54.282;10.078;2023-07-29T14:37:19;6.72;;;2.13;;
20073;SDS011;10197;54.282;10.078;2023-07-29T14:39:45;5.78;;;2.03;;
20073;SDS011;10197;54.282;10.078;2023-07-29T14:42:13;1.75;;;1.63;;